createdAt,value
2022-12-15T00:02:22.793Z,-3.08
2022-12-15T00:05:09.538Z,-3.06
2022-12-15T00:07:54.723Z,-3.00
2022-12-15T00:10:39.922Z,-3.09
2022-12-15T00:13:29.280Z,-3.12
2022-12-15T00:16:14.876Z,-3.12
2022-12-15T00:19:00.436Z,-3.10
2022-12-15T00:21:47.474Z,-3.06
2022-12-15T00:24:32.573Z,-3.15
2022-12-15T00:27:17.905Z,-3.23
2022-12-15T00:30:03.402Z,-3.17
2022-12-15T00:32:48.878Z,-3.28
2022-12-15T00:35:34.329Z,-3.31
2022-12-15T00:38:26.634Z,-3.25
2022-12-15T00:40:59.032Z,-3.23
2022-12-15T00:43:27.350Z,-3.24
2022-12-15T00:46:12.814Z,-3.31
2022-12-15T00:48:40.631Z,-3.36
2022-12-15T00:51:08.097Z,-3.35
2022-12-15T00:53:55.216Z,-3.31
2022-12-15T00:56:40.772Z,-3.23
2022-12-15T00:59:26.236Z,-3.18
2022-12-15T01:02:11.449Z,-3.13
2022-12-15T01:04:57.193Z,-3.12
2022-12-15T01:07:42.373Z,-3.11
2022-12-15T01:10:29.579Z,-3.18
2022-12-15T01:13:14.876Z,-3.21
2022-12-15T01:16:00.289Z,-3.17
2022-12-15T01:18:49.483Z,-3.10
2022-12-15T01:21:17.541Z,-3.11
2022-12-15T01:23:45.232Z,-3.15
2022-12-15T01:26:14.344Z,-3.18
2022-12-15T01:28:42.079Z,-3.13
2022-12-15T01:31:13.178Z,-3.06
2022-12-15T01:33:42.795Z,-3.07
2022-12-15T01:36:11.634Z,-3.10
2022-12-15T01:38:39.371Z,-3.08
2022-12-15T01:41:10.322Z,-3.07
2022-12-15T01:43:41.928Z,-3.11
2022-12-15T01:46:11.693Z,-3.21
2022-12-15T01:48:43.041Z,-3.21
2022-12-15T01:51:15.926Z,-3.16
2022-12-15T01:53:50.211Z,-3.13
2022-12-15T01:56:20.142Z,-3.12
2022-12-15T01:58:51.382Z,-3.16
2022-12-15T02:01:19.291Z,-3.09
2022-12-15T02:03:49.062Z,-3.07
2022-12-15T02:06:17.942Z,-3.14
2022-12-15T02:08:49.180Z,-3.16
2022-12-15T02:11:39.814Z,-3.21
2022-12-15T02:14:10.767Z,-3.20
2022-12-15T02:16:50.401Z,-3.20
2022-12-15T02:19:42.250Z,-3.22
2022-12-15T02:22:26.933Z,-3.24
2022-12-15T02:25:30.454Z,-3.25
2022-12-15T02:28:03.810Z,-3.38
2022-12-15T02:30:44.241Z,-3.38
2022-12-15T02:33:18.381Z,-3.40
2022-12-15T02:35:57.838Z,-3.42
2022-12-15T02:38:34.726Z,-3.47
2022-12-15T02:41:04.633Z,-3.50
2022-12-15T02:43:38.761Z,-3.59
2022-12-15T02:46:20.786Z,-3.66
2022-12-15T02:49:00.763Z,-3.70
2022-12-15T02:51:45.099Z,-3.80
2022-12-15T02:54:29.650Z,-3.83
2022-12-15T02:57:06.134Z,-3.93
2022-12-15T02:59:42.980Z,-3.95
2022-12-15T03:02:14.828Z,-3.99
2022-12-15T03:04:45.407Z,-4.06
2022-12-15T03:07:15.280Z,-4.09
2022-12-15T03:09:43.229Z,-4.04
2022-12-15T03:12:11.519Z,-4.10
2022-12-15T03:14:39.276Z,-4.21
2022-12-15T03:17:07.481Z,-4.28
2022-12-15T03:19:36.659Z,-4.29
2022-12-15T03:22:04.471Z,-4.36
2022-12-15T03:24:32.193Z,-4.45
2022-12-15T03:26:59.929Z,-4.47
2022-12-15T03:29:27.563Z,-4.61
2022-12-15T03:31:55.242Z,-4.66
2022-12-15T03:34:23.526Z,-4.64
2022-12-15T03:36:52.608Z,-4.75
2022-12-15T03:39:20.362Z,-4.76
2022-12-15T03:41:47.983Z,-4.81
2022-12-15T03:44:15.864Z,-4.83
2022-12-15T03:46:43.529Z,-4.84
2022-12-15T03:49:11.362Z,-4.78
2022-12-15T03:51:39.467Z,-4.76
2022-12-15T03:54:08.791Z,-4.76
2022-12-15T03:56:36.496Z,-4.86
2022-12-15T03:59:04.189Z,-4.92
2022-12-15T04:01:33.621Z,-5.02
2022-12-15T04:04:02.281Z,-5.03
2022-12-15T04:06:30.717Z,-4.98
2022-12-15T04:08:58.377Z,-4.99
2022-12-15T04:11:27.542Z,-4.94
2022-12-15T04:13:55.273Z,-4.87
2022-12-15T04:16:22.996Z,-4.83
2022-12-15T04:19:10.898Z,-4.85
2022-12-15T04:21:37.557Z,-4.79
2022-12-15T04:24:23.715Z,-4.77
2022-12-15T04:27:10.757Z,-4.72
2022-12-15T04:29:55.991Z,-4.72
2022-12-15T04:32:41.985Z,-4.70
2022-12-15T04:35:29.045Z,-4.75
2022-12-15T04:38:15.194Z,-4.80
2022-12-15T04:41:00.377Z,-4.86
2022-12-15T04:43:47.531Z,-4.90
2022-12-15T04:46:32.743Z,-4.99
2022-12-15T04:49:18.301Z,-4.99
2022-12-15T04:52:03.514Z,-4.94
2022-12-15T04:54:49.084Z,-4.87
2022-12-15T04:57:34.445Z,-4.77
2022-12-15T05:00:21.120Z,-4.64
2022-12-15T05:03:06.757Z,-4.53
2022-12-15T05:05:52.032Z,-4.37
2022-12-15T05:08:37.124Z,-4.33
2022-12-15T05:11:22.251Z,-4.34
2022-12-15T05:14:07.428Z,-4.32
2022-12-15T05:16:54.231Z,-4.18
2022-12-15T05:19:39.761Z,-4.15
2022-12-15T05:22:25.158Z,-4.25
2022-12-15T05:25:10.485Z,-4.33
2022-12-15T05:27:55.602Z,-4.25
2022-12-15T05:30:41.110Z,-4.35
2022-12-15T05:33:10.102Z,-4.47
2022-12-15T05:35:37.915Z,-4.55
2022-12-15T05:38:06.323Z,-4.61
2022-12-15T05:40:34.074Z,-4.73
2022-12-15T05:43:02.189Z,-4.83
2022-12-15T05:45:29.902Z,-4.98
2022-12-15T05:47:57.863Z,-5.06
2022-12-15T05:50:26.851Z,-5.07
2022-12-15T05:52:55.702Z,-5.09
2022-12-15T05:55:23.476Z,-5.09
2022-12-15T05:57:54.923Z,-5.07
2022-12-15T06:00:22.978Z,-5.09
2022-12-15T06:02:51.034Z,-5.12
2022-12-15T06:05:19.021Z,-5.20
2022-12-15T06:07:48.062Z,-5.20
2022-12-15T06:10:15.972Z,-5.14
2022-12-15T06:12:43.926Z,-5.06
2022-12-15T06:15:12.026Z,-5.13
2022-12-15T06:17:39.729Z,-5.27
2022-12-15T06:20:08.534Z,-5.26
2022-12-15T06:22:36.683Z,-5.29
2022-12-15T06:25:07.056Z,-5.29
2022-12-15T06:27:36.837Z,-5.38
2022-12-15T06:30:05.403Z,-5.29
2022-12-15T06:32:35.692Z,-5.25
2022-12-15T06:35:03.462Z,-5.22
2022-12-15T06:37:31.109Z,-5.15
2022-12-15T06:39:58.771Z,-5.21
2022-12-15T06:42:27.945Z,-5.23
2022-12-15T06:44:55.769Z,-5.26
2022-12-15T06:47:23.495Z,-5.29
2022-12-15T06:49:51.131Z,-5.30
2022-12-15T06:52:18.786Z,-5.01
2022-12-15T06:54:46.476Z,-5.16
2022-12-15T06:57:14.192Z,-5.03
2022-12-15T06:59:43.568Z,-5.14
2022-12-15T07:02:19.247Z,-5.22
2022-12-15T07:04:50.742Z,-5.20
2022-12-15T07:07:18.843Z,-4.95
2022-12-15T07:09:46.684Z,-5.17
2022-12-15T07:12:14.536Z,-5.22
2022-12-15T07:14:46.407Z,-5.16
2022-12-15T07:17:20.754Z,-5.34
2022-12-15T07:19:48.431Z,-5.11
2022-12-15T07:22:16.178Z,-5.18
2022-12-15T07:24:43.916Z,-5.12
2022-12-15T07:27:11.646Z,-5.28
2022-12-15T07:29:39.289Z,-5.33
2022-12-15T07:32:08.607Z,-5.38
2022-12-15T07:34:36.750Z,-5.29
2022-12-15T07:37:04.618Z,-5.44
2022-12-15T07:39:32.848Z,-5.34
2022-12-15T07:42:01.399Z,-5.22
2022-12-15T07:44:29.963Z,-5.35
2022-12-15T07:46:57.761Z,-5.18
2022-12-15T07:49:27.142Z,-5.28
2022-12-15T07:51:58.433Z,-5.38
2022-12-15T07:54:26.184Z,-5.24
2022-12-15T07:56:54.102Z,-5.37
2022-12-15T07:59:21.793Z,-5.35
2022-12-15T08:01:49.791Z,-5.22
2022-12-15T08:04:18.633Z,-5.11
2022-12-15T08:06:47.715Z,-5.21
2022-12-15T08:09:15.410Z,-5.29
2022-12-15T08:11:43.113Z,-5.23
2022-12-15T08:14:16.910Z,-5.20
2022-12-15T08:16:46.023Z,-5.20
2022-12-15T08:19:15.539Z,-5.12
2022-12-15T08:22:03.815Z,-5.17
2022-12-15T08:24:31.567Z,-5.27
2022-12-15T08:26:59.949Z,-5.30
2022-12-15T08:32:15.493Z,-5.23
2022-12-15T08:34:43.487Z,-5.26
2022-12-15T08:37:12.571Z,-5.23
2022-12-15T08:39:40.565Z,-5.04
2022-12-15T08:42:08.261Z,-5.10
2022-12-15T08:44:36.104Z,-4.91
2022-12-15T08:47:03.948Z,-4.98
2022-12-15T08:49:31.636Z,-4.74
2022-12-15T08:51:59.897Z,-4.85
2022-12-15T08:54:29.089Z,-4.69
2022-12-15T08:56:56.814Z,-4.74
2022-12-15T08:59:25.209Z,-4.73
2022-12-15T09:01:54.370Z,-4.82
2022-12-15T09:04:22.130Z,-4.89
2022-12-15T09:06:50.904Z,-4.77
2022-12-15T09:09:18.908Z,-4.65
2022-12-15T09:11:48.554Z,-4.80
2022-12-15T09:14:16.600Z,-4.74
2022-12-15T09:16:44.442Z,-4.61
2022-12-15T09:19:12.344Z,-4.63
2022-12-15T09:21:42.938Z,-4.54
2022-12-15T09:24:20.614Z,-4.46
2022-12-15T09:26:54.103Z,-4.24
2022-12-15T09:29:22.204Z,-4.11
2022-12-15T09:31:49.992Z,-4.10
2022-12-15T09:34:17.854Z,-4.03
2022-12-15T09:36:45.562Z,-3.85
2022-12-15T09:39:14.432Z,-3.67
2022-12-15T09:41:44.088Z,-3.54
2022-12-15T09:44:15.528Z,-3.57
2022-12-15T09:46:54.138Z,-3.54
2022-12-15T09:49:37.977Z,-3.61
2022-12-15T09:52:11.220Z,-3.36
2022-12-15T09:54:41.593Z,-3.36
2022-12-15T09:57:17.669Z,-3.32
2022-12-15T10:00:04.728Z,-3.03
2022-12-15T10:03:03.536Z,-3.16
2022-12-15T10:06:07.225Z,-3.02
2022-12-15T10:08:31.350Z,-3.06
2022-12-15T10:11:01.490Z,-2.84
2022-12-15T10:13:39.115Z,-3.00
2022-12-15T10:16:19.435Z,-2.85
2022-12-15T10:19:01.705Z,-2.96
2022-12-15T10:21:31.823Z,-2.84
2022-12-15T10:24:09.987Z,-2.95
2022-12-15T10:26:38.450Z,-2.95
2022-12-15T10:29:26.332Z,-2.83
2022-12-15T10:32:00.588Z,-2.94
2022-12-15T10:34:30.221Z,-2.94
2022-12-15T10:36:59.198Z,-2.89
2022-12-15T10:39:39.264Z,-2.68
2022-12-15T10:42:21.085Z,-2.73
2022-12-15T10:44:51.158Z,-2.94
2022-12-15T10:47:22.698Z,-2.84
2022-12-15T10:49:51.304Z,-2.75
2022-12-15T10:52:32.097Z,-2.83
2022-12-15T10:54:59.901Z,-3.01
2022-12-15T10:57:31.721Z,-3.03
2022-12-15T11:00:27.315Z,-3.10
2022-12-15T11:02:56.614Z,-2.91
2022-12-15T11:05:24.611Z,-3.00
2022-12-15T11:07:54.838Z,-2.80
2022-12-15T11:10:24.725Z,-2.97
2022-12-15T11:12:59.388Z,-3.18
2022-12-15T11:15:43.184Z,-2.99
2022-12-15T11:18:21.711Z,-3.05
2022-12-15T11:20:54.113Z,-3.01
2022-12-15T11:23:29.693Z,-3.01
2022-12-15T11:28:54.394Z,-2.97
2022-12-15T11:31:27.646Z,-2.81
2022-12-15T11:33:57.116Z,-2.88
2022-12-15T11:36:40.979Z,-2.75
2022-12-15T11:39:21.918Z,-2.89
2022-12-15T11:41:58.692Z,-2.85
2022-12-15T11:44:31.273Z,-2.95
2022-12-15T11:47:11.087Z,-2.91
2022-12-15T11:50:03.691Z,-2.87
2022-12-15T11:52:47.861Z,-2.87
2022-12-15T11:55:29.629Z,-2.89
2022-12-15T11:58:32.487Z,-2.73
2022-12-15T12:01:10.915Z,-2.94
2022-12-15T12:03:44.662Z,-2.90
2022-12-15T12:06:20.597Z,-3.00
2022-12-15T12:09:02.734Z,-2.98
2022-12-15T12:11:35.735Z,-3.03
2022-12-15T12:14:16.847Z,-3.10
2022-12-15T12:16:53.904Z,-3.08
2022-12-15T12:19:25.987Z,-3.17
2022-12-15T12:21:59.724Z,-2.99
2022-12-15T12:24:31.127Z,-2.98
2022-12-15T12:27:02.745Z,-3.10
2022-12-15T12:29:34.685Z,-2.93
2022-12-15T12:32:08.676Z,-2.85
2022-12-15T12:34:51.180Z,-2.86
2022-12-15T12:37:28.806Z,-2.62
2022-12-15T12:40:03.236Z,-2.57
2022-12-15T12:42:39.687Z,-2.69
2022-12-15T12:45:12.303Z,-2.71
2022-12-15T12:47:45.131Z,-2.63
2022-12-15T12:50:19.697Z,-2.61
2022-12-15T12:52:53.444Z,-2.75
2022-12-15T12:55:29.509Z,-2.67
2022-12-15T12:57:58.062Z,-2.70
2022-12-15T13:00:29.010Z,-2.80
2022-12-15T13:03:19.143Z,-2.81
2022-12-15T13:05:50.552Z,-2.86
2022-12-15T13:08:50.945Z,-2.83
2022-12-15T13:11:57.869Z,-2.89
2022-12-15T13:17:43.164Z,-3.04
2022-12-15T13:20:27.042Z,-2.92
2022-12-15T13:22:57.384Z,-2.81
2022-12-15T13:25:40.592Z,-2.59
2022-12-15T13:28:24.380Z,-2.57
2022-12-15T13:31:27.478Z,-2.74
2022-12-15T13:34:01.896Z,-2.78
2022-12-15T13:36:54.845Z,-2.55
2022-12-15T13:39:59.118Z,-2.68
2022-12-15T13:45:50.256Z,-2.59
2022-12-15T13:48:38.599Z,-2.83
2022-12-15T13:51:33.212Z,-2.87
2022-12-15T13:54:05.251Z,-2.67
2022-12-15T13:57:02.402Z,-2.67
2022-12-15T13:59:43.897Z,-2.54
2022-12-15T14:02:25.551Z,-2.84
2022-12-15T14:05:16.466Z,-2.73
2022-12-15T14:07:52.670Z,-2.78
2022-12-15T14:10:26.183Z,-2.81
2022-12-15T14:12:56.969Z,-2.72
2022-12-15T14:15:29.653Z,-2.71
2022-12-15T14:17:58.978Z,-2.58
2022-12-15T14:20:29.305Z,-2.52
2022-12-15T14:22:57.125Z,-2.69
2022-12-15T14:25:27.896Z,-2.81
2022-12-15T14:27:55.931Z,-2.94
2022-12-15T14:30:29.219Z,-2.96
2022-12-15T14:33:00.202Z,-2.94
2022-12-15T14:35:32.568Z,-3.17
2022-12-15T14:38:03.890Z,-3.09
2022-12-15T14:40:32.305Z,-3.08
2022-12-15T14:43:00.649Z,-3.07
2022-12-15T14:45:32.271Z,-3.22
2022-12-15T14:48:39.396Z,-3.20
2022-12-15T14:50:53.258Z,-3.26
2022-12-15T14:53:22.940Z,-3.40
2022-12-15T14:55:51.481Z,-3.44
2022-12-15T14:58:33.319Z,-3.49
2022-12-15T15:01:07.216Z,-3.31
2022-12-15T15:03:10.904Z,-2.83
2022-12-15T15:03:11.089Z,-3.01
2022-12-15T15:03:11.249Z,-2.96
2022-12-15T15:03:38.160Z,-3.40
2022-12-15T15:06:16.884Z,-3.59
2022-12-15T15:08:48.064Z,-3.52
2022-12-15T15:11:29.350Z,-3.55
2022-12-15T15:14:00.464Z,-3.64
2022-12-15T15:16:30.177Z,-3.69
2022-12-15T15:19:01.875Z,-3.79
2022-12-15T15:21:31.654Z,-3.73
2022-12-15T15:24:00.802Z,-3.78
2022-12-15T15:26:29.786Z,-3.74
2022-12-15T15:28:58.181Z,-3.90
2022-12-15T15:31:41.468Z,-3.93
2022-12-15T15:34:11.438Z,-3.88
2022-12-15T15:36:39.969Z,-3.86
2022-12-15T15:39:15.031Z,-3.81
2022-12-15T15:41:42.928Z,-3.86
2022-12-15T15:44:13.895Z,-3.78
2022-12-15T15:46:49.331Z,-3.80
2022-12-15T15:49:20.332Z,-3.85
2022-12-15T15:51:48.345Z,-3.90
2022-12-15T15:54:18.827Z,-3.84
2022-12-15T15:56:46.546Z,-3.97
2022-12-15T15:59:16.321Z,-3.90
2022-12-15T16:01:46.476Z,-3.80
2022-12-15T16:04:14.729Z,-3.75
2022-12-15T16:06:47.231Z,-3.85
2022-12-15T16:09:16.753Z,-3.70
2022-12-15T16:11:45.900Z,-3.72
2022-12-15T16:14:14.167Z,-3.66
2022-12-15T16:16:42.630Z,-3.83
2022-12-15T16:19:11.953Z,-3.75
2022-12-15T16:21:41.881Z,-3.83
2022-12-15T16:24:12.230Z,-3.88
2022-12-15T16:26:47.174Z,-3.79
2022-12-15T16:29:17.097Z,-3.71
2022-12-15T16:31:45.928Z,-3.61
2022-12-15T16:34:16.477Z,-3.69
2022-12-15T16:36:45.192Z,-3.70
2022-12-15T16:39:25.599Z,-3.72
2022-12-15T16:41:54.810Z,-3.72
2022-12-15T16:44:23.532Z,-3.66
2022-12-15T16:46:51.372Z,-3.66
2022-12-15T16:49:20.991Z,-3.67
2022-12-15T16:51:51.630Z,-3.50
2022-12-15T16:54:22.626Z,-3.43
2022-12-15T16:56:52.000Z,-3.54
2022-12-15T16:59:37.369Z,-3.58
2022-12-15T17:02:24.375Z,-3.57
2022-12-15T17:04:55.199Z,-3.53
2022-12-15T17:07:23.043Z,-3.52
2022-12-15T17:09:51.503Z,-3.51
2022-12-15T17:12:20.085Z,-3.61
2022-12-15T17:14:48.034Z,-3.55
2022-12-15T17:17:17.581Z,-3.58
2022-12-15T17:20:11.659Z,-3.52
2022-12-15T17:22:35.997Z,-3.56
2022-12-15T17:25:03.879Z,-3.55
2022-12-15T17:27:31.857Z,-3.57
2022-12-15T17:30:01.068Z,-3.61
2022-12-15T17:32:28.756Z,-3.62
2022-12-15T17:34:56.630Z,-3.43
2022-12-15T17:37:26.180Z,-3.53
2022-12-15T17:39:58.291Z,-3.43
2022-12-15T17:42:26.172Z,-3.50
2022-12-15T17:44:54.052Z,-3.50
2022-12-15T17:47:24.057Z,-3.53
2022-12-15T17:49:51.699Z,-3.61
2022-12-15T17:52:27.072Z,-3.60
2022-12-15T17:54:56.107Z,-3.73
2022-12-15T17:57:25.448Z,-3.82
2022-12-15T17:59:53.168Z,-3.73
2022-12-15T18:02:20.968Z,-3.79
2022-12-15T18:04:48.757Z,-3.87
2022-12-15T18:07:19.116Z,-3.84
2022-12-15T18:09:48.015Z,-3.89
2022-12-15T18:12:19.187Z,-3.85
2022-12-15T18:14:48.263Z,-3.89
2022-12-15T18:17:16.043Z,-3.82
2022-12-15T18:19:45.572Z,-3.91
2022-12-15T18:22:15.197Z,-3.91
2022-12-15T18:24:43.136Z,-3.97
2022-12-15T18:27:23.171Z,-3.88
2022-12-15T18:29:52.672Z,-3.88
2022-12-15T18:32:22.214Z,-3.98
2022-12-15T18:34:50.938Z,-3.99
2022-12-15T18:37:20.676Z,-3.64
2022-12-15T18:39:48.642Z,-3.58
2022-12-15T18:42:17.956Z,-3.71
2022-12-15T18:44:48.027Z,-3.67
2022-12-15T18:47:19.783Z,-3.89
2022-12-15T18:49:47.857Z,-3.71
2022-12-15T18:52:19.905Z,-3.56
2022-12-15T18:54:48.321Z,-3.72
2022-12-15T18:57:27.411Z,-3.81
2022-12-15T18:59:58.302Z,-3.84
2022-12-15T19:02:27.631Z,-3.80
2022-12-15T19:04:55.923Z,-3.72
2022-12-15T19:07:23.692Z,-3.79
2022-12-15T19:09:51.626Z,-3.79
2022-12-15T19:12:19.715Z,-3.77
2022-12-15T19:14:49.177Z,-3.88
2022-12-15T19:17:37.090Z,-3.92
2022-12-15T19:20:25.984Z,-3.89
2022-12-15T19:22:54.033Z,-3.82
2022-12-15T19:25:26.101Z,-3.65
2022-12-15T19:27:58.551Z,-3.72
2022-12-15T19:30:28.236Z,-3.65
2022-12-15T19:32:55.905Z,-3.68
2022-12-15T19:35:25.702Z,-3.71
2022-12-15T19:37:55.442Z,-3.59
2022-12-15T19:40:27.408Z,-3.67
2022-12-15T19:42:55.841Z,-3.63
2022-12-15T19:45:26.083Z,-3.58
2022-12-15T19:47:54.188Z,-3.52
2022-12-15T19:50:25.543Z,-3.51
2022-12-15T19:52:57.201Z,-3.59
2022-12-15T19:55:27.727Z,-3.57
2022-12-15T19:57:55.734Z,-3.63
2022-12-15T20:00:25.012Z,-3.63
2022-12-15T20:02:54.930Z,-3.65
2022-12-15T20:05:25.560Z,-3.60
2022-12-15T20:07:54.557Z,-3.67
2022-12-15T20:10:31.296Z,-3.60
2022-12-15T20:12:59.858Z,-3.63
2022-12-15T20:15:27.594Z,-3.51
2022-12-15T20:17:56.724Z,-3.65
2022-12-15T20:20:29.980Z,-3.67
2022-12-15T20:23:02.487Z,-3.55
2022-12-15T20:25:34.387Z,-3.69
2022-12-15T20:28:02.658Z,-3.73
2022-12-15T20:30:35.080Z,-3.79
2022-12-15T20:33:05.188Z,-3.77
2022-12-15T20:35:37.790Z,-3.71
2022-12-15T20:38:22.205Z,-3.70
2022-12-15T20:40:49.897Z,-3.76
2022-12-15T20:43:20.476Z,-3.69
2022-12-15T20:45:54.717Z,-3.77
2022-12-15T20:48:26.565Z,-3.66
2022-12-15T20:50:55.662Z,-3.73
2022-12-15T20:53:25.614Z,-3.77
2022-12-15T20:55:55.177Z,-3.75
2022-12-15T20:58:28.282Z,-3.73
2022-12-15T21:01:00.944Z,-3.69
2022-12-15T21:03:31.175Z,-3.77
2022-12-15T21:06:01.087Z,-3.82
2022-12-15T21:08:30.798Z,-3.69
2022-12-15T21:11:03.424Z,-3.82
2022-12-15T21:13:33.875Z,-3.66
2022-12-15T21:16:02.144Z,-3.65
2022-12-15T21:19:10.849Z,-3.63
2022-12-15T21:21:24.893Z,-3.67
2022-12-15T21:23:52.584Z,-3.51
2022-12-15T21:26:24.066Z,-3.72
2022-12-15T21:28:55.377Z,-3.83
2022-12-15T21:31:23.919Z,-3.93
2022-12-15T21:33:51.661Z,-3.93
2022-12-15T21:36:22.417Z,-4.00
2022-12-15T21:38:52.784Z,-3.98
2022-12-15T21:41:23.970Z,-3.93
2022-12-15T21:43:51.824Z,-4.00
2022-12-15T21:46:27.773Z,-4.04
2022-12-15T21:49:13.412Z,-4.05
2022-12-15T21:51:44.507Z,-4.13
2022-12-15T21:54:18.286Z,-4.09
2022-12-15T21:56:46.547Z,-4.09
2022-12-15T21:59:15.335Z,-4.13
2022-12-15T22:01:43.663Z,-4.16
2022-12-15T22:04:18.988Z,-3.99
2022-12-15T22:09:36.920Z,-4.02
2022-12-15T22:12:04.822Z,-4.15
2022-12-15T22:14:36.005Z,-4.16
2022-12-15T22:17:15.172Z,-4.27
2022-12-15T22:19:43.471Z,-4.33
2022-12-15T22:22:12.539Z,-4.32
2022-12-15T22:24:41.061Z,-4.46
2022-12-15T22:27:18.686Z,-4.47
2022-12-15T22:29:46.544Z,-4.48
2022-12-15T22:32:15.683Z,-4.52
2022-12-15T22:34:43.418Z,-4.54
2022-12-15T22:37:12.457Z,-4.58
2022-12-15T22:39:40.681Z,-4.56
2022-12-15T22:42:09.163Z,-4.48
2022-12-15T22:44:38.842Z,-4.59
2022-12-15T22:47:07.590Z,-4.70
2022-12-15T22:49:38.447Z,-4.75
2022-12-15T22:52:17.181Z,-4.74
2022-12-15T22:54:46.286Z,-4.67
2022-12-15T22:57:21.133Z,-4.73
2022-12-15T22:59:51.916Z,-4.77
2022-12-15T23:02:19.710Z,-4.73
2022-12-15T23:04:47.957Z,-4.79
2022-12-15T23:07:16.879Z,-4.82
2022-12-15T23:09:44.932Z,-4.78
2022-12-15T23:12:11.593Z,-4.79
2022-12-15T23:14:56.723Z,-4.79
2022-12-15T23:17:24.954Z,-4.93
2022-12-15T23:19:52.676Z,-4.88
2022-12-15T23:22:21.782Z,-4.98
2022-12-15T23:24:49.789Z,-5.03
2022-12-15T23:27:17.857Z,-5.01
2022-12-15T23:29:45.813Z,-5.02
2022-12-15T23:32:13.556Z,-4.92
2022-12-15T23:34:42.654Z,-4.90
2022-12-15T23:37:10.942Z,-4.96
2022-12-15T23:39:42.446Z,-4.98
2022-12-15T23:42:11.064Z,-4.74
2022-12-15T23:44:39.225Z,-4.65
2022-12-15T23:47:09.067Z,-4.80
2022-12-15T23:49:37.363Z,-4.72
2022-12-15T23:52:05.720Z,-4.88
2022-12-15T23:54:33.413Z,-4.89
2022-12-15T23:57:02.784Z,-4.97
2022-12-15T23:59:31.023Z,-5.03
